Aktuell METAR/TAF ESNU/UME

290520Z 30013KT CAVOK 10/04 Q1026=

290530Z 2906/2915 30012KT 9999 FEW035 BKN070=
Källa: Luftfartsverket (aro.lfv.se)